sensor_id;sensor_type;location;lat;lon;timestamp;pressure;altitude;pressure_sealevel;temperature;humidity
71778;BME280;59609;52.430;4.668;2023-08-17T00:01:23;102225.47;;;16.41;100.00
71778;BME280;59609;52.430;4.668;2023-08-17T00:03:48;102216.25;;;16.33;100.00
71778;BME280;59609;52.430;4.668;2023-08-17T00:06:13;102215.59;;;16.31;100.00
71778;BME280;59609;52.430;4.668;2023-08-17T00:08:39;102201.50;;;16.24;100.00
71778;BME280;59609;52.430;4.668;2023-08-17T00:11:04;102228.44;;;16.32;100.00
71778;BME280;59609;52.430;4.668;2023-08-17T00:13:30;102199.56;;;16.17;100.00
71778;BME280;59609;52.430;4.668;2023-08-17T00:15:55;102171.88;;;15.91;100.00
71778;BME280;59609;52.430;4.668;2023-08-17T00:18:20;102241.31;;;16.33;100.00
71778;BME280;59609;52.430;4.668;2023-08-17T00:20:46;102216.91;;;16.19;100.00
71778;BME280;59609;52.430;4.668;2023-08-17T00:23:11;102232.78;;;16.26;100.00
71778;BME280;59609;52.430;4.668;2023-08-17T00:25:36;102236.97;;;16.30;100.00
71778;BME280;59609;52.430;4.668;2023-08-17T00:28:05;102225.66;;;16.24;100.00
71778;BME280;59609;52.430;4.668;2023-08-17T00:30:30;102195.66;;;16.02;100.00
71778;BME280;59609;52.430;4.668;2023-08-17T00:32:56;102183.47;;;15.94;100.00
71778;BME280;59609;52.430;4.668;2023-08-17T00:35:21;102223.00;;;16.14;100.00
71778;BME280;59609;52.430;4.668;2023-08-17T00:37:46;102203.84;;;16.03;100.00
71778;BME280;59609;52.430;4.668;2023-08-17T00:40:12;102205.41;;;15.98;100.00
71778;BME280;59609;52.430;4.668;2023-08-17T00:42:37;102217.06;;;16.01;100.00
71778;BME280;59609;52.430;4.668;2023-08-17T00:45:03;102233.59;;;16.11;100.00
71778;BME280;59609;52.430;4.668;2023-08-17T00:47:28;102182.41;;;15.79;100.00
71778;BME280;59609;52.430;4.668;2023-08-17T00:49:55;102212.69;;;15.98;100.00
71778;BME280;59609;52.430;4.668;2023-08-17T00:52:21;102223.31;;;16.11;100.00
71778;BME280;59609;52.430;4.668;2023-08-17T00:54:46;102224.19;;;16.04;100.00
71778;BME280;59609;52.430;4.668;2023-08-17T00:57:12;102193.38;;;15.81;100.00
71778;BME280;59609;52.430;4.668;2023-08-17T00:59:38;102225.22;;;16.03;100.00
71778;BME280;59609;52.430;4.668;2023-08-17T01:02:04;102228.50;;;15.98;100.00
71778;BME280;59609;52.430;4.668;2023-08-17T01:04:30;102224.50;;;15.92;100.00
71778;BME280;59609;52.430;4.668;2023-08-17T01:06:56;102216.50;;;15.89;100.00
71778;BME280;59609;52.430;4.668;2023-08-17T01:09:22;102224.69;;;15.99;100.00
71778;BME280;59609;52.430;4.668;2023-08-17T01:12:00;102210.94;;;15.89;100.00
71778;BME280;59609;52.430;4.668;2023-08-17T01:14:33;102172.09;;;15.64;100.00
71778;BME280;59609;52.430;4.668;2023-08-17T01:19:31;102170.06;;;15.74;100.00
71778;BME280;59609;52.430;4.668;2023-08-17T01:22:08;102154.84;;;15.52;100.00
71778;BME280;59609;52.430;4.668;2023-08-17T01:24:34;102188.78;;;15.72;100.00
71778;BME280;59609;52.430;4.668;2023-08-17T01:26:59;102206.00;;;15.75;100.00
71778;BME280;59609;52.430;4.668;2023-08-17T01:29:25;102170.16;;;15.56;100.00
71778;BME280;59609;52.430;4.668;2023-08-17T01:34:40;102185.63;;;15.59;100.00
71778;BME280;59609;52.430;4.668;2023-08-17T01:37:10;102222.34;;;15.78;100.00
71778;BME280;59609;52.430;4.668;2023-08-17T01:39:44;102199.38;;;15.68;100.00
71778;BME280;59609;52.430;4.668;2023-08-17T01:42:15;102203.84;;;15.61;100.00
71778;BME280;59609;52.430;4.668;2023-08-17T01:44:41;102201.78;;;15.63;100.00
71778;BME280;59609;52.430;4.668;2023-08-17T01:47:07;102209.41;;;15.61;100.00
71778;BME280;59609;52.430;4.668;2023-08-17T01:49:32;102213.44;;;15.67;100.00
71778;BME280;59609;52.430;4.668;2023-08-17T01:51:58;102213.06;;;15.62;100.00
71778;BME280;59609;52.430;4.668;2023-08-17T01:54:23;102196.38;;;15.54;100.00
71778;BME280;59609;52.430;4.668;2023-08-17T01:56:49;102204.38;;;15.57;100.00
71778;BME280;59609;52.430;4.668;2023-08-17T01:59:14;102212.19;;;15.61;100.00
71778;BME280;59609;52.430;4.668;2023-08-17T02:01:40;102204.53;;;15.55;100.00
71778;BME280;59609;52.430;4.668;2023-08-17T02:04:05;102199.16;;;15.54;100.00
71778;BME280;59609;52.430;4.668;2023-08-17T02:06:31;102198.97;;;15.55;100.00
71778;BME280;59609;52.430;4.668;2023-08-17T02:08:58;102195.50;;;15.53;100.00
71778;BME280;59609;52.430;4.668;2023-08-17T02:11:23;102167.06;;;15.33;100.00
71778;BME280;59609;52.430;4.668;2023-08-17T02:13:49;102198.59;;;15.50;100.00
71778;BME280;59609;52.430;4.668;2023-08-17T02:16:14;102168.97;;;15.33;100.00
71778;BME280;59609;52.430;4.668;2023-08-17T02:18:39;102170.72;;;15.34;100.00
71778;BME280;59609;52.430;4.668;2023-08-17T02:21:05;102202.81;;;15.54;100.00
71778;BME280;59609;52.430;4.668;2023-08-17T02:23:32;102172.09;;;15.30;100.00
71778;BME280;59609;52.430;4.668;2023-08-17T02:25:57;102172.09;;;15.30;100.00
71778;BME280;59609;52.430;4.668;2023-08-17T02:28:22;102169.91;;;15.16;100.00
71778;BME280;59609;52.430;4.668;2023-08-17T02:30:48;102220.41;;;15.45;100.00
71778;BME280;59609;52.430;4.668;2023-08-17T02:33:14;102189.75;;;15.29;100.00
71778;BME280;59609;52.430;4.668;2023-08-17T02:35:39;102210.69;;;15.41;100.00
71778;BME280;59609;52.430;4.668;2023-08-17T02:38:04;102159.81;;;15.07;100.00
71778;BME280;59609;52.430;4.668;2023-08-17T02:40:30;102169.38;;;15.12;100.00
71778;BME280;59609;52.430;4.668;2023-08-17T02:42:55;102147.97;;;15.05;100.00
71778;BME280;59609;52.430;4.668;2023-08-17T02:45:21;102152.81;;;15.03;100.00
71778;BME280;59609;52.430;4.668;2023-08-17T02:47:46;102179.47;;;15.21;100.00
71778;BME280;59609;52.430;4.668;2023-08-17T02:50:11;102184.72;;;15.24;100.00
71778;BME280;59609;52.430;4.668;2023-08-17T02:52:37;102189.06;;;15.27;100.00
71778;BME280;59609;52.430;4.668;2023-08-17T02:55:03;102165.38;;;15.15;100.00
71778;BME280;59609;52.430;4.668;2023-08-17T02:57:29;102191.34;;;15.31;100.00
71778;BME280;59609;52.430;4.668;2023-08-17T02:59:56;102210.63;;;15.33;100.00
71778;BME280;59609;52.430;4.668;2023-08-17T03:02:21;102205.41;;;15.30;100.00
71778;BME280;59609;52.430;4.668;2023-08-17T03:04:47;102184.47;;;15.18;100.00
71778;BME280;59609;52.430;4.668;2023-08-17T03:07:12;102129.09;;;14.82;100.00
71778;BME280;59609;52.430;4.668;2023-08-17T03:09:37;102169.34;;;15.04;100.00
71778;BME280;59609;52.430;4.668;2023-08-17T03:12:03;102178.56;;;15.13;100.00
71778;BME280;59609;52.430;4.668;2023-08-17T03:14:29;102205.00;;;15.25;100.00
71778;BME280;59609;52.430;4.668;2023-08-17T03:16:54;102174.38;;;15.09;100.00
71778;BME280;59609;52.430;4.668;2023-08-17T03:19:20;102187.72;;;15.05;100.00
71778;BME280;59609;52.430;4.668;2023-08-17T03:21:45;102174.16;;;15.02;100.00
71778;BME280;59609;52.430;4.668;2023-08-17T03:24:12;102175.03;;;15.03;100.00
71778;BME280;59609;52.430;4.668;2023-08-17T03:26:37;102202.53;;;15.14;100.00
71778;BME280;59609;52.430;4.668;2023-08-17T03:29:03;102181.59;;;15.02;100.00
71778;BME280;59609;52.430;4.668;2023-08-17T03:31:28;102207.03;;;15.15;100.00
71778;BME280;59609;52.430;4.668;2023-08-17T03:33:54;102206.19;;;15.14;100.00
71778;BME280;59609;52.430;4.668;2023-08-17T03:36:20;102211.19;;;15.11;100.00
71778;BME280;59609;52.430;4.668;2023-08-17T03:38:46;102220.53;;;15.10;100.00
71778;BME280;59609;52.430;4.668;2023-08-17T03:41:11;102214.13;;;15.09;100.00
71778;BME280;59609;52.430;4.668;2023-08-17T03:43:36;102193.38;;;14.95;100.00
71778;BME280;59609;52.430;4.668;2023-08-17T03:46:04;102227.63;;;15.04;100.00
71778;BME280;59609;52.430;4.668;2023-08-17T03:48:29;102205.72;;;15.01;100.00
71778;BME280;59609;52.430;4.668;2023-08-17T03:50:55;102215.31;;;15.07;100.00
71778;BME280;59609;52.430;4.668;2023-08-17T03:53:21;102187.78;;;14.87;100.00
71778;BME280;59609;52.430;4.668;2023-08-17T03:55:50;102182.38;;;14.86;100.00
71778;BME280;59609;52.430;4.668;2023-08-17T03:58:16;102215.31;;;15.07;100.00
71778;BME280;59609;52.430;4.668;2023-08-17T04:00:42;102212.13;;;15.02;100.00
71778;BME280;59609;52.430;4.668;2023-08-17T04:03:08;102209.22;;;15.03;100.00
71778;BME280;59609;52.430;4.668;2023-08-17T04:05:33;102172.81;;;14.80;100.00
71778;BME280;59609;52.430;4.668;2023-08-17T04:08:00;102212.69;;;15.05;100.00
71778;BME280;59609;52.430;4.668;2023-08-17T04:10:28;102215.47;;;15.05;100.00
71778;BME280;59609;52.430;4.668;2023-08-17T04:12:54;102172.06;;;14.78;100.00
71778;BME280;59609;52.430;4.668;2023-08-17T04:15:19;102172.06;;;14.78;100.00
71778;BME280;59609;52.430;4.668;2023-08-17T04:17:44;102197.50;;;14.91;100.00
71778;BME280;59609;52.430;4.668;2023-08-17T04:20:10;102194.91;;;14.90;100.00
71778;BME280;59609;52.430;4.668;2023-08-17T04:22:36;102211.59;;;14.98;100.00
71778;BME280;59609;52.430;4.668;2023-08-17T04:25:01;102199.94;;;14.94;100.00
71778;BME280;59609;52.430;4.668;2023-08-17T04:27:27;102207.97;;;14.98;100.00
71778;BME280;59609;52.430;4.668;2023-08-17T04:29:52;102176.53;;;14.71;100.00
71778;BME280;59609;52.430;4.668;2023-08-17T04:32:18;102184.38;;;14.76;100.00
71778;BME280;59609;52.430;4.668;2023-08-17T04:34:45;102201.00;;;14.93;100.00
71778;BME280;59609;52.430;4.668;2023-08-17T04:37:10;102173.75;;;14.71;100.00
71778;BME280;59609;52.430;4.668;2023-08-17T04:39:36;102203.91;;;14.92;100.00
71778;BME280;59609;52.430;4.668;2023-08-17T04:42:03;102186.03;;;14.86;100.00
71778;BME280;59609;52.430;4.668;2023-08-17T04:44:28;102204.47;;;14.95;100.00
71778;BME280;59609;52.430;4.668;2023-08-17T04:46:54;102208.66;;;15.00;100.00
71778;BME280;59609;52.430;4.668;2023-08-17T04:49:19;102201.44;;;15.07;100.00
71778;BME280;59609;52.430;4.668;2023-08-17T04:51:44;102192.56;;;15.03;100.00
71778;BME280;59609;52.430;4.668;2023-08-17T04:54:10;102198.53;;;15.16;100.00
71778;BME280;59609;52.430;4.668;2023-08-17T04:56:35;102156.97;;;14.99;100.00
71778;BME280;59609;52.430;4.668;2023-08-17T04:59:00;102151.06;;;15.02;100.00
71778;BME280;59609;52.430;4.668;2023-08-17T05:01:26;102194.66;;;15.35;100.00
71778;BME280;59609;52.430;4.668;2023-08-17T05:03:51;102147.88;;;15.14;100.00
71778;BME280;59609;52.430;4.668;2023-08-17T05:06:17;102185.84;;;15.39;100.00
71778;BME280;59609;52.430;4.668;2023-08-17T05:08:42;102157.91;;;15.41;100.00
71778;BME280;59609;52.430;4.668;2023-08-17T05:11:07;102158.59;;;15.43;100.00
71778;BME280;59609;52.430;4.668;2023-08-17T05:13:34;102148.72;;;15.40;100.00
71778;BME280;59609;52.430;4.668;2023-08-17T05:15:59;102165.97;;;15.52;100.00
71778;BME280;59609;52.430;4.668;2023-08-17T05:18:25;102176.44;;;15.66;100.00
71778;BME280;59609;52.430;4.668;2023-08-17T05:20:50;102152.06;;;15.52;100.00
71778;BME280;59609;52.430;4.668;2023-08-17T05:23:15;102177.69;;;15.72;100.00
71778;BME280;59609;52.430;4.668;2023-08-17T05:25:41;102179.09;;;15.76;100.00
71778;BME280;59609;52.430;4.668;2023-08-17T05:28:06;102137.31;;;15.52;100.00
71778;BME280;59609;52.430;4.668;2023-08-17T05:30:32;102173.34;;;15.69;100.00
71778;BME280;59609;52.430;4.668;2023-08-17T05:32:58;102164.69;;;15.80;100.00
71778;BME280;59609;52.430;4.668;2023-08-17T05:35:23;102166.25;;;15.83;100.00
71778;BME280;59609;52.430;4.668;2023-08-17T05:37:49;102181.22;;;15.90;100.00
71778;BME280;59609;52.430;4.668;2023-08-17T05:40:15;102146.66;;;15.84;100.00
71778;BME280;59609;52.430;4.668;2023-08-17T05:42:40;102151.53;;;15.98;100.00
71778;BME280;59609;52.430;4.668;2023-08-17T05:45:06;102154.34;;;16.15;100.00
71778;BME280;59609;52.430;4.668;2023-08-17T05:47:32;102183.59;;;16.43;100.00
71778;BME280;59609;52.430;4.668;2023-08-17T05:49:58;102154.75;;;16.44;100.00
71778;BME280;59609;52.430;4.668;2023-08-17T05:52:23;102158.91;;;16.48;100.00
71778;BME280;59609;52.430;4.668;2023-08-17T05:54:48;102174.44;;;16.67;100.00
71778;BME280;59609;52.430;4.668;2023-08-17T05:57:14;102144.69;;;16.59;100.00
71778;BME280;59609;52.430;4.668;2023-08-17T05:59:39;102152.69;;;16.70;100.00
71778;BME280;59609;52.430;4.668;2023-08-17T06:02:05;102192.34;;;16.80;100.00
71778;BME280;59609;52.430;4.668;2023-08-17T06:04:30;102165.19;;;16.66;100.00
71778;BME280;59609;52.430;4.668;2023-08-17T06:06:56;102183.09;;;16.88;100.00
71778;BME280;59609;52.430;4.668;2023-08-17T06:09:21;102195.59;;;17.16;100.00
71778;BME280;59609;52.430;4.668;2023-08-17T06:11:47;102172.47;;;17.08;100.00
71778;BME280;59609;52.430;4.668;2023-08-17T06:14:12;102140.50;;;16.87;100.00
71778;BME280;59609;52.430;4.668;2023-08-17T06:16:37;102197.13;;;17.35;100.00
71778;BME280;59609;52.430;4.668;2023-08-17T06:19:03;102139.75;;;17.02;100.00
71778;BME280;59609;52.430;4.668;2023-08-17T06:21:28;102172.22;;;17.33;100.00
71778;BME280;59609;52.430;4.668;2023-08-17T06:23:54;102150.38;;;17.53;100.00
71778;BME280;59609;52.430;4.668;2023-08-17T06:26:19;102184.72;;;17.92;100.00
71778;BME280;59609;52.430;4.668;2023-08-17T06:28:44;102107.34;;;17.64;100.00
71778;BME280;59609;52.430;4.668;2023-08-17T06:31:10;102152.00;;;18.17;100.00
71778;BME280;59609;52.430;4.668;2023-08-17T06:33:35;102154.28;;;18.14;100.00
71778;BME280;59609;52.430;4.668;2023-08-17T06:36:01;102169.03;;;18.53;100.00
71778;BME280;59609;52.430;4.668;2023-08-17T06:38:26;102180.47;;;18.58;100.00
71778;BME280;59609;52.430;4.668;2023-08-17T06:40:52;102171.81;;;18.53;100.00
71778;BME280;59609;52.430;4.668;2023-08-17T06:43:18;102131.34;;;18.49;100.00
71778;BME280;59609;52.430;4.668;2023-08-17T06:45:43;102179.50;;;18.74;100.00
71778;BME280;59609;52.430;4.668;2023-08-17T06:48:08;102185.47;;;18.71;100.00
71778;BME280;59609;52.430;4.668;2023-08-17T06:50:34;102199.91;;;18.74;100.00
71778;BME280;59609;52.430;4.668;2023-08-17T06:53:01;102178.78;;;18.57;100.00
71778;BME280;59609;52.430;4.668;2023-08-17T06:55:26;102162.78;;;18.43;100.00
71778;BME280;59609;52.430;4.668;2023-08-17T06:57:51;102196.56;;;18.56;100.00
71778;BME280;59609;52.430;4.668;2023-08-17T07:00:18;102176.38;;;18.46;100.00
71778;BME280;59609;52.430;4.668;2023-08-17T07:02:46;102161.38;;;18.47;100.00
71778;BME280;59609;52.430;4.668;2023-08-17T07:05:14;102148.53;;;18.38;100.00
71778;BME280;59609;52.430;4.668;2023-08-17T07:07:39;102155.16;;;18.37;100.00
71778;BME280;59609;52.430;4.668;2023-08-17T07:10:05;102185.16;;;18.66;100.00
71778;BME280;59609;52.430;4.668;2023-08-17T07:12:32;102178.41;;;18.60;100.00
71778;BME280;59609;52.430;4.668;2023-08-17T07:14:57;102171.44;;;18.56;100.00
71778;BME280;59609;52.430;4.668;2023-08-17T07:17:23;102172.38;;;18.71;100.00
71778;BME280;59609;52.430;4.668;2023-08-17T07:19:48;102171.72;;;18.84;100.00
71778;BME280;59609;52.430;4.668;2023-08-17T07:22:14;102196.00;;;18.83;100.00
71778;BME280;59609;52.430;4.668;2023-08-17T07:24:41;102183.41;;;18.87;100.00
71778;BME280;59609;52.430;4.668;2023-08-17T07:27:06;102166.41;;;18.74;100.00
71778;BME280;59609;52.430;4.668;2023-08-17T07:29:34;102173.34;;;18.78;100.00
71778;BME280;59609;52.430;4.668;2023-08-17T07:32:00;102179.88;;;18.71;100.00
71778;BME280;59609;52.430;4.668;2023-08-17T07:34:28;102174.31;;;18.85;100.00
71778;BME280;59609;52.430;4.668;2023-08-17T07:36:55;102206.41;;;19.27;100.00
71778;BME280;59609;52.430;4.668;2023-08-17T07:39:20;102190.78;;;19.18;100.00
71778;BME280;59609;52.430;4.668;2023-08-17T07:41:45;102187.50;;;19.14;100.00
71778;BME280;59609;52.430;4.668;2023-08-17T07:44:11;102203.97;;;19.38;100.00
71778;BME280;59609;52.430;4.668;2023-08-17T07:46:36;102182.50;;;19.39;100.00
71778;BME280;59609;52.430;4.668;2023-08-17T07:49:02;102195.38;;;19.48;100.00
71778;BME280;59609;52.430;4.668;2023-08-17T07:51:27;102191.38;;;19.28;100.00
71778;BME280;59609;52.430;4.668;2023-08-17T07:53:57;102180.19;;;19.28;100.00
71778;BME280;59609;52.430;4.668;2023-08-17T07:56:26;102154.56;;;19.24;100.00
71778;BME280;59609;52.430;4.668;2023-08-17T07:58:53;102180.56;;;19.39;100.00
71778;BME280;59609;52.430;4.668;2023-08-17T08:01:23;102206.84;;;19.68;100.00
71778;BME280;59609;52.430;4.668;2023-08-17T08:03:48;102203.66;;;19.71;100.00
71778;BME280;59609;52.430;4.668;2023-08-17T08:06:14;102175.00;;;19.69;100.00
71778;BME280;59609;52.430;4.668;2023-08-17T08:08:40;102169.44;;;19.54;100.00
71778;BME280;59609;52.430;4.668;2023-08-17T08:11:05;102198.81;;;19.94;100.00
71778;BME280;59609;52.430;4.668;2023-08-17T08:13:31;102178.75;;;19.90;100.00
71778;BME280;59609;52.430;4.668;2023-08-17T08:15:58;102199.00;;;19.92;100.00
71778;BME280;59609;52.430;4.668;2023-08-17T08:18:26;102195.81;;;19.95;100.00
71778;BME280;59609;52.430;4.668;2023-08-17T08:20:51;102209.56;;;20.12;100.00
71778;BME280;59609;52.430;4.668;2023-08-17T08:23:16;102202.06;;;20.27;100.00
71778;BME280;59609;52.430;4.668;2023-08-17T08:25:42;102206.81;;;20.47;100.00
71778;BME280;59609;52.430;4.668;2023-08-17T08:28:07;102181.25;;;20.36;100.00
71778;BME280;59609;52.430;4.668;2023-08-17T08:30:33;102183.81;;;20.52;100.00
71778;BME280;59609;52.430;4.668;2023-08-17T08:32:59;102176.19;;;21.10;100.00
71778;BME280;59609;52.430;4.668;2023-08-17T08:35:25;102173.75;;;21.06;100.00
71778;BME280;59609;52.430;4.668;2023-08-17T08:37:51;102199.06;;;21.13;100.00
71778;BME280;59609;52.430;4.668;2023-08-17T08:40:17;102192.34;;;21.35;100.00
71778;BME280;59609;52.430;4.668;2023-08-17T08:42:43;102182.03;;;21.42;100.00
71778;BME280;59609;52.430;4.668;2023-08-17T08:45:09;102191.91;;;21.38;100.00
71778;BME280;59609;52.430;4.668;2023-08-17T08:47:36;102198.47;;;21.52;100.00
71778;BME280;59609;52.430;4.668;2023-08-17T08:50:05;102160.25;;;21.10;100.00
71778;BME280;59609;52.430;4.668;2023-08-17T08:52:35;102171.13;;;21.26;100.00
71778;BME280;59609;52.430;4.668;2023-08-17T08:55:21;102189.22;;;21.51;100.00
71778;BME280;59609;52.430;4.668;2023-08-17T08:57:49;102187.25;;;21.86;100.00
71778;BME280;59609;52.430;4.668;2023-08-17T09:00:15;102160.44;;;22.18;100.00
71778;BME280;59609;52.430;4.668;2023-08-17T09:02:42;102156.00;;;21.89;100.00
71778;BME280;59609;52.430;4.668;2023-08-17T09:05:10;102178.28;;;21.97;100.00
71778;BME280;59609;52.430;4.668;2023-08-17T09:07:37;102189.81;;;22.29;98.65
71778;BME280;59609;52.430;4.668;2023-08-17T09:10:02;102169.34;;;22.35;97.52
71778;BME280;59609;52.430;4.668;2023-08-17T09:12:29;102175.16;;;22.33;95.25
71778;BME280;59609;52.430;4.668;2023-08-17T09:14:55;102177.53;;;22.30;96.35
71778;BME280;59609;52.430;4.668;2023-08-17T09:17:24;102177.56;;;22.43;95.41
71778;BME280;59609;52.430;4.668;2023-08-17T09:19:50;102155.81;;;22.84;93.18
71778;BME280;59609;52.430;4.668;2023-08-17T09:22:36;102164.88;;;23.32;89.55
71778;BME280;59609;52.430;4.668;2023-08-17T09:25:02;102157.13;;;23.41;88.85
71778;BME280;59609;52.430;4.668;2023-08-17T09:27:28;102162.47;;;23.55;88.03
71778;BME280;59609;52.430;4.668;2023-08-17T09:30:08;102149.06;;;23.57;86.31
71778;BME280;59609;52.430;4.668;2023-08-17T09:32:33;102157.50;;;23.57;83.54
71778;BME280;59609;52.430;4.668;2023-08-17T09:35:05;102118.06;;;23.71;83.90
71778;BME280;59609;52.430;4.668;2023-08-17T09:37:32;102128.97;;;23.47;84.26
71778;BME280;59609;52.430;4.668;2023-08-17T09:39:58;102155.34;;;23.46;84.74
71778;BME280;59609;52.430;4.668;2023-08-17T09:42:23;102149.84;;;23.84;82.13
71778;BME280;59609;52.430;4.668;2023-08-17T09:44:53;102135.13;;;23.76;80.03
71778;BME280;59609;52.430;4.668;2023-08-17T09:47:18;102162.31;;;24.46;80.47
71778;BME280;59609;52.430;4.668;2023-08-17T09:49:54;102148.81;;;24.23;79.20
71778;BME280;59609;52.430;4.668;2023-08-17T09:52:21;102130.94;;;23.98;80.81
71778;BME280;59609;52.430;4.668;2023-08-17T09:54:46;102118.09;;;24.15;78.60
71778;BME280;59609;52.430;4.668;2023-08-17T09:57:13;102141.91;;;24.82;76.61
71778;BME280;59609;52.430;4.668;2023-08-17T09:59:39;102138.28;;;25.24;73.72
71778;BME280;59609;52.430;4.668;2023-08-17T10:02:10;102127.34;;;25.09;72.85
71778;BME280;59609;52.430;4.668;2023-08-17T10:04:42;102139.09;;;25.06;73.91
71778;BME280;59609;52.430;4.668;2023-08-17T10:07:08;102132.94;;;24.29;77.23
71778;BME280;59609;52.430;4.668;2023-08-17T10:09:36;102144.75;;;25.06;77.21
71778;BME280;59609;52.430;4.668;2023-08-17T10:12:10;102125.41;;;24.23;75.91
71778;BME280;59609;52.430;4.668;2023-08-17T10:14:39;102127.84;;;23.62;79.19
71778;BME280;59609;52.430;4.668;2023-08-17T10:17:08;102111.66;;;23.24;82.87
71778;BME280;59609;52.430;4.668;2023-08-17T10:19:59;102127.34;;;23.78;80.38
71778;BME280;59609;52.430;4.668;2023-08-17T10:23:03;102127.75;;;24.26;79.17
71778;BME280;59609;52.430;4.668;2023-08-17T10:25:32;102105.19;;;24.32;77.55
71778;BME280;59609;52.430;4.668;2023-08-17T10:27:58;102097.41;;;24.59;77.22
71778;BME280;59609;52.430;4.668;2023-08-17T10:30:25;102134.94;;;25.34;71.19
71778;BME280;59609;52.430;4.668;2023-08-17T10:32:51;102115.97;;;25.41;70.57
71778;BME280;59609;52.430;4.668;2023-08-17T10:35:17;102114.81;;;25.05;71.44
71778;BME280;59609;52.430;4.668;2023-08-17T10:37:43;102105.44;;;24.55;73.16
71778;BME280;59609;52.430;4.668;2023-08-17T10:40:09;102105.66;;;25.10;72.88
71778;BME280;59609;52.430;4.668;2023-08-17T10:42:36;102112.91;;;24.75;73.56
71778;BME280;59609;52.430;4.668;2023-08-17T10:45:33;102122.91;;;24.39;74.99
71778;BME280;59609;52.430;4.668;2023-08-17T10:50:37;102109.13;;;24.87;73.72
71778;BME280;59609;52.430;4.668;2023-08-17T10:53:10;102112.19;;;24.79;72.35
71778;BME280;59609;52.430;4.668;2023-08-17T10:55:38;102128.50;;;25.27;73.02
71778;BME280;59609;52.430;4.668;2023-08-17T10:58:05;102125.50;;;26.31;69.72
71778;BME280;59609;52.430;4.668;2023-08-17T11:00:35;102103.16;;;26.11;67.57
71778;BME280;59609;52.430;4.668;2023-08-17T11:03:18;102118.09;;;26.18;67.98
71778;BME280;59609;52.430;4.668;2023-08-17T11:05:45;102129.25;;;26.96;65.61
71778;BME280;59609;52.430;4.668;2023-08-17T11:08:33;102123.75;;;26.00;67.76
71778;BME280;59609;52.430;4.668;2023-08-17T11:11:06;102111.09;;;26.02;67.53
71778;BME280;59609;52.430;4.668;2023-08-17T11:13:36;102109.19;;;25.85;67.53
71778;BME280;59609;52.430;4.668;2023-08-17T11:16:06;102091.34;;;25.12;70.24
71778;BME280;59609;52.430;4.668;2023-08-17T11:18:33;102094.56;;;25.33;69.92
71778;BME280;59609;52.430;4.668;2023-08-17T11:20:59;102092.00;;;25.32;70.50
71778;BME280;59609;52.430;4.668;2023-08-17T11:23:28;102093.69;;;24.65;72.94
71778;BME280;59609;52.430;4.668;2023-08-17T11:25:54;102047.72;;;24.89;71.54
71778;BME280;59609;52.430;4.668;2023-08-17T11:28:21;102056.63;;;25.11;71.13
71778;BME280;59609;52.430;4.668;2023-08-17T11:30:56;102067.16;;;25.58;72.56
71778;BME280;59609;52.430;4.668;2023-08-17T11:33:25;102072.38;;;25.91;69.50
71778;BME280;59609;52.430;4.668;2023-08-17T11:35:50;102081.09;;;26.20;68.85
71778;BME280;59609;52.430;4.668;2023-08-17T11:38:16;102082.09;;;26.55;67.93
71778;BME280;59609;52.430;4.668;2023-08-17T11:40:41;102058.19;;;26.39;65.91
71778;BME280;59609;52.430;4.668;2023-08-17T11:43:08;102091.88;;;26.41;67.09
71778;BME280;59609;52.430;4.668;2023-08-17T11:45:34;102048.31;;;26.19;66.34
71778;BME280;59609;52.430;4.668;2023-08-17T11:47:59;102091.72;;;26.36;66.80
71778;BME280;59609;52.430;4.668;2023-08-17T11:50:25;102084.25;;;25.82;67.39
71778;BME280;59609;52.430;4.668;2023-08-17T11:52:51;102067.22;;;25.34;68.97
71778;BME280;59609;52.430;4.668;2023-08-17T11:55:17;102092.72;;;25.64;68.64
71778;BME280;59609;52.430;4.668;2023-08-17T11:57:43;102086.47;;;25.62;71.22
71778;BME280;59609;52.430;4.668;2023-08-17T12:00:09;102087.25;;;26.17;67.81
71778;BME280;59609;52.430;4.668;2023-08-17T12:02:37;102053.56;;;26.15;65.91
71778;BME280;59609;52.430;4.668;2023-08-17T12:05:07;102088.25;;;26.04;68.28
71778;BME280;59609;52.430;4.668;2023-08-17T12:07:34;102079.66;;;26.70;66.20
71778;BME280;59609;52.430;4.668;2023-08-17T12:10:02;102075.56;;;26.66;64.21
71778;BME280;59609;52.430;4.668;2023-08-17T12:12:29;102057.59;;;25.89;67.07
71778;BME280;59609;52.430;4.668;2023-08-17T12:14:56;102048.13;;;26.13;67.15
71778;BME280;59609;52.430;4.668;2023-08-17T12:17:24;102049.31;;;26.24;64.27
71778;BME280;59609;52.430;4.668;2023-08-17T12:19:50;102086.59;;;25.67;66.70
71778;BME280;59609;52.430;4.668;2023-08-17T12:22:19;102065.56;;;26.10;66.04
71778;BME280;59609;52.430;4.668;2023-08-17T12:24:44;102066.25;;;25.94;67.05
71778;BME280;59609;52.430;4.668;2023-08-17T12:27:09;102073.28;;;26.86;64.80
71778;BME280;59609;52.430;4.668;2023-08-17T12:29:55;102094.22;;;26.85;63.74
71778;BME280;59609;52.430;4.668;2023-08-17T12:32:20;102067.56;;;26.63;65.48
71778;BME280;59609;52.430;4.668;2023-08-17T12:34:46;102080.25;;;26.72;64.35
71778;BME280;59609;52.430;4.668;2023-08-17T12:37:12;102077.34;;;26.07;65.58
71778;BME280;59609;52.430;4.668;2023-08-17T12:39:38;102020.19;;;25.64;65.64
71778;BME280;59609;52.430;4.668;2023-08-17T12:42:04;102056.81;;;27.18;64.58
71778;BME280;59609;52.430;4.668;2023-08-17T12:44:30;102076.50;;;26.90;62.81
71778;BME280;59609;52.430;4.668;2023-08-17T12:46:55;102070.59;;;26.91;64.22
71778;BME280;59609;52.430;4.668;2023-08-17T12:49:21;102046.50;;;26.36;66.07